createdAt,value
2017-11-17T00:01:06.753Z,0.00
2017-11-17T00:02:06.808Z,0.00
2017-11-17T00:04:01.321Z,0.00
2017-11-17T00:05:01.358Z,0.00
2017-11-17T00:06:54.359Z,0.00
2017-11-17T00:07:54.395Z,0.00
2017-11-17T00:09:47.382Z,0.00
2017-11-17T00:10:47.436Z,0.00
2017-11-17T00:12:40.456Z,0.00
2017-11-17T00:13:40.477Z,0.00
2017-11-17T00:15:33.457Z,0.00
2017-11-17T00:16:33.517Z,0.00
2017-11-17T00:18:26.519Z,0.00
2017-11-17T00:19:26.557Z,0.00
2017-11-17T00:21:19.544Z,0.00
2017-11-17T00:22:19.604Z,0.00
2017-11-17T00:24:12.605Z,0.00
2017-11-17T00:25:12.645Z,0.00
2017-11-17T00:27:05.685Z,0.00
2017-11-17T00:28:05.686Z,0.00
2017-11-17T00:29:58.667Z,0.00
2017-11-17T00:30:58.726Z,0.00
2017-11-17T00:32:51.727Z,0.00
2017-11-17T00:33:51.767Z,0.00
2017-11-17T00:35:44.748Z,0.00
2017-11-17T00:36:44.806Z,0.00
2017-11-17T00:38:37.811Z,0.00
2017-11-17T00:39:37.851Z,0.00
2017-11-17T00:41:30.836Z,0.00
2017-11-17T00:42:30.893Z,0.00
2017-11-17T00:44:23.896Z,0.00
2017-11-17T00:45:23.933Z,0.00
2017-11-17T00:47:16.952Z,0.00
2017-11-17T00:48:16.992Z,0.00
2017-11-17T00:50:09.973Z,0.00
2017-11-17T00:51:10.031Z,0.00
2017-11-17T00:53:03.031Z,0.00
2017-11-17T00:54:03.072Z,0.00
2017-11-17T00:55:56.059Z,0.00
2017-11-17T00:56:56.119Z,0.00
2017-11-17T00:58:49.117Z,0.00
2017-11-17T00:59:49.157Z,0.00
2017-11-17T01:01:42.144Z,0.00
2017-11-17T01:02:42.197Z,0.00
2017-11-17T01:04:35.724Z,0.00
2017-11-17T01:05:35.745Z,0.00
2017-11-17T01:07:28.754Z,0.00
2017-11-17T01:08:28.786Z,0.00
2017-11-17T01:10:21.772Z,0.00
2017-11-17T01:11:21.831Z,0.00
2017-11-17T01:13:14.834Z,0.00
2017-11-17T01:14:14.873Z,0.00
2017-11-17T01:16:07.858Z,0.00
2017-11-17T01:17:07.915Z,0.00
2017-11-17T01:19:00.915Z,0.00
2017-11-17T01:20:00.955Z,0.00
2017-11-17T01:21:53.941Z,0.00
2017-11-17T01:22:53.996Z,0.00
2017-11-17T01:24:46.998Z,0.00
2017-11-17T01:25:47.039Z,0.00
2017-11-17T01:27:40.039Z,0.00
2017-11-17T01:28:40.079Z,0.00
2017-11-17T01:30:33.064Z,0.00
2017-11-17T01:31:33.120Z,0.00
2017-11-17T01:33:26.127Z,0.00
2017-11-17T01:34:26.165Z,0.00
2017-11-17T01:36:19.147Z,0.00
2017-11-17T01:37:19.208Z,0.00
2017-11-17T01:39:12.213Z,0.00
2017-11-17T01:40:12.251Z,0.00
2017-11-17T01:42:05.239Z,0.00
2017-11-17T01:43:05.291Z,0.00
2017-11-17T01:44:58.292Z,0.00
2017-11-17T01:45:58.331Z,0.00
2017-11-17T01:47:51.334Z,0.00
2017-11-17T01:48:51.375Z,0.00
2017-11-17T01:50:44.369Z,0.00
2017-11-17T01:51:44.415Z,0.00
2017-11-17T01:53:37.423Z,0.00
2017-11-17T01:54:37.461Z,0.00
2017-11-17T01:56:30.442Z,0.00
2017-11-17T01:57:30.502Z,0.00
2017-11-17T01:59:23.506Z,0.00
2017-11-17T02:00:23.541Z,0.00
2017-11-17T02:02:16.522Z,0.00
2017-11-17T02:03:16.583Z,0.00
2017-11-17T02:05:09.582Z,0.00
2017-11-17T02:06:09.619Z,0.00
2017-11-17T02:08:02.636Z,0.00
2017-11-17T02:09:02.660Z,0.00
2017-11-17T02:10:55.652Z,0.00
2017-11-17T02:11:55.711Z,0.00
2017-11-17T02:13:48.709Z,0.00
2017-11-17T02:14:48.749Z,0.00
2017-11-17T02:16:41.735Z,0.00
2017-11-17T02:17:41.791Z,0.00
2017-11-17T02:19:34.795Z,0.00
2017-11-17T02:20:34.843Z,0.00
2017-11-17T02:22:27.816Z,0.00
2017-11-17T02:23:27.873Z,0.00
2017-11-17T02:25:20.874Z,0.00
2017-11-17T02:26:20.913Z,0.00
2017-11-17T02:28:13.913Z,0.00
2017-11-17T02:29:13.953Z,0.00
2017-11-17T02:31:06.940Z,0.00
2017-11-17T02:32:06.993Z,0.00
2017-11-17T02:34:00.000Z,0.00
2017-11-17T02:35:00.034Z,0.00
2017-11-17T02:36:53.017Z,0.00
2017-11-17T02:37:53.072Z,0.00
2017-11-17T02:39:46.074Z,0.00
2017-11-17T02:40:46.111Z,0.00
2017-11-17T02:42:39.094Z,0.00
2017-11-17T02:43:39.152Z,0.00
2017-11-17T02:45:32.153Z,0.00
2017-11-17T02:46:32.190Z,0.00
2017-11-17T02:48:25.196Z,0.00
2017-11-17T02:49:25.229Z,0.00
2017-11-17T02:51:18.211Z,0.00
2017-11-17T02:52:18.279Z,0.00
2017-11-17T02:54:11.274Z,0.00
2017-11-17T02:55:11.309Z,0.00
2017-11-17T02:57:04.292Z,0.00
2017-11-17T02:58:04.402Z,0.00
2017-11-17T02:59:57.348Z,0.00
2017-11-17T03:00:57.386Z,0.00
2017-11-17T03:02:50.377Z,0.00
2017-11-17T03:03:50.426Z,0.00
2017-11-17T03:05:43.430Z,0.00
2017-11-17T03:06:43.467Z,0.00
2017-11-17T03:08:36.469Z,0.00
2017-11-17T03:09:36.506Z,0.00
2017-11-17T03:11:29.491Z,0.00
2017-11-17T03:12:29.546Z,0.00
2017-11-17T03:14:22.549Z,0.00
2017-11-17T03:15:22.587Z,0.00
2017-11-17T03:17:15.566Z,0.00
2017-11-17T03:18:15.626Z,0.00
2017-11-17T03:20:08.628Z,0.00
2017-11-17T03:21:08.665Z,0.00
2017-11-17T03:23:01.652Z,0.00
2017-11-17T03:24:01.708Z,0.00
2017-11-17T03:25:54.724Z,0.00
2017-11-17T03:26:54.763Z,0.00
2017-11-17T03:28:47.762Z,0.00
2017-11-17T03:29:47.801Z,0.00
2017-11-17T03:31:40.778Z,0.00
2017-11-17T03:32:40.837Z,0.00
2017-11-17T03:34:33.841Z,0.00
2017-11-17T03:35:33.887Z,0.00
2017-11-17T03:37:26.858Z,0.00
2017-11-17T03:38:26.917Z,0.00
2017-11-17T03:40:19.919Z,0.00
2017-11-17T03:41:19.957Z,0.00
2017-11-17T03:43:12.937Z,0.00
2017-11-17T03:44:12.994Z,0.00
2017-11-17T03:46:06.001Z,0.00
2017-11-17T03:47:06.059Z,0.00
2017-11-17T03:48:59.046Z,0.00
2017-11-17T03:49:59.090Z,0.00
2017-11-17T03:51:52.061Z,0.00
2017-11-17T03:52:52.122Z,0.00
2017-11-17T03:54:45.124Z,0.00
2017-11-17T03:55:45.163Z,0.00
2017-11-17T03:57:38.155Z,0.00
2017-11-17T03:58:38.205Z,0.00
2017-11-17T04:00:31.221Z,0.00
2017-11-17T04:01:31.261Z,0.00
2017-11-17T04:03:24.237Z,0.00
2017-11-17T04:04:24.297Z,0.00
2017-11-17T04:06:17.301Z,0.00
2017-11-17T04:07:17.353Z,0.00
2017-11-17T04:09:10.338Z,0.00
2017-11-17T04:10:10.376Z,0.00
2017-11-17T04:12:03.354Z,0.00
2017-11-17T04:13:03.413Z,0.00
2017-11-17T04:14:56.416Z,0.00
2017-11-17T04:15:56.454Z,0.00
2017-11-17T04:17:49.429Z,0.00
2017-11-17T04:18:49.487Z,0.00
2017-11-17T04:20:42.490Z,0.00
2017-11-17T04:21:42.527Z,0.00
2017-11-17T04:23:35.505Z,0.00
2017-11-17T04:24:35.564Z,0.00
2017-11-17T04:26:28.565Z,0.00
2017-11-17T04:27:28.603Z,0.00
2017-11-17T04:29:21.604Z,0.00
2017-11-17T04:30:21.640Z,0.00
2017-11-17T04:32:14.625Z,0.00
2017-11-17T04:33:14.682Z,0.00
2017-11-17T04:35:07.680Z,0.00
2017-11-17T04:36:07.717Z,0.00
2017-11-17T04:38:00.696Z,0.00
2017-11-17T04:39:00.756Z,0.00
2017-11-17T04:40:53.757Z,0.00
2017-11-17T04:41:53.791Z,0.00
2017-11-17T04:43:46.775Z,0.00
2017-11-17T04:44:46.834Z,0.00
2017-11-17T04:46:39.832Z,0.00
2017-11-17T04:47:39.870Z,0.00
2017-11-17T04:49:32.875Z,0.00
2017-11-17T04:50:32.909Z,0.00
2017-11-17T04:52:25.894Z,0.00
2017-11-17T04:53:25.952Z,0.00
2017-11-17T04:55:18.947Z,0.00
2017-11-17T04:56:18.985Z,0.00
2017-11-17T04:58:11.971Z,0.00
2017-11-17T04:59:12.026Z,0.00
2017-11-17T05:01:05.022Z,0.00
2017-11-17T05:02:05.060Z,0.00
2017-11-17T05:03:58.045Z,0.00
2017-11-17T05:04:58.099Z,0.00
2017-11-17T05:06:51.099Z,0.00
2017-11-17T05:07:51.134Z,0.00
2017-11-17T05:09:44.136Z,0.00
2017-11-17T05:10:44.173Z,0.00
2017-11-17T05:12:37.158Z,0.00
2017-11-17T05:13:37.211Z,0.00
2017-11-17T05:15:30.212Z,0.00
2017-11-17T05:16:30.248Z,0.00
2017-11-17T05:18:23.227Z,0.00
2017-11-17T05:19:23.285Z,0.00
2017-11-17T05:21:16.285Z,0.00
2017-11-17T05:22:16.321Z,0.00
2017-11-17T05:24:09.306Z,0.00
2017-11-17T05:25:09.360Z,0.00
2017-11-17T05:27:02.362Z,0.00
2017-11-17T05:28:02.397Z,0.00
2017-11-17T05:29:55.396Z,0.00
2017-11-17T05:30:55.432Z,0.00
2017-11-17T05:32:48.410Z,0.00
2017-11-17T05:33:48.469Z,0.00
2017-11-17T05:35:41.982Z,0.00
2017-11-17T05:36:42.014Z,0.00
2017-11-17T05:38:35.000Z,0.00
2017-11-17T05:39:35.060Z,0.00
2017-11-17T05:41:28.058Z,0.00
2017-11-17T05:42:28.096Z,0.00
2017-11-17T05:44:21.073Z,0.00
2017-11-17T05:45:21.132Z,0.00
2017-11-17T05:47:14.131Z,0.00
2017-11-17T05:48:14.168Z,0.00
2017-11-17T05:50:07.172Z,0.00
2017-11-17T05:51:07.203Z,0.00
2017-11-17T05:53:00.182Z,0.00
2017-11-17T05:54:00.239Z,0.00
2017-11-17T05:55:53.246Z,0.00
2017-11-17T05:56:53.294Z,0.00
2017-11-17T05:58:46.254Z,0.00
2017-11-17T05:59:46.312Z,0.00
2017-11-17T06:01:39.316Z,0.00
2017-11-17T06:02:39.349Z,0.00
2017-11-17T06:04:32.326Z,0.00
2017-11-17T06:05:32.384Z,0.00
2017-11-17T06:07:25.445Z,0.00
2017-11-17T06:08:25.420Z,0.00
2017-11-17T06:10:18.420Z,0.00
2017-11-17T06:11:18.456Z,0.00
2017-11-17T06:13:11.434Z,0.00
2017-11-17T06:14:11.490Z,0.00
2017-11-17T06:16:04.496Z,0.00
2017-11-17T06:17:04.527Z,0.00
2017-11-17T06:18:57.503Z,0.00
2017-11-17T06:19:57.560Z,4.00
2017-11-17T06:21:50.564Z,4.00
2017-11-17T06:22:50.596Z,4.00
2017-11-17T06:24:43.574Z,8.00
2017-11-17T06:25:43.630Z,4.00
2017-11-17T06:27:36.637Z,8.00
2017-11-17T06:28:36.674Z,8.00
2017-11-17T06:30:29.674Z,12.00
2017-11-17T06:31:29.707Z,12.00
2017-11-17T06:33:22.691Z,20.00
2017-11-17T06:34:22.745Z,28.00
2017-11-17T06:36:16.253Z,36.00
2017-11-17T06:37:16.288Z,40.00
2017-11-17T06:39:09.263Z,52.00
2017-11-17T06:40:09.327Z,60.00
2017-11-17T06:42:02.321Z,76.00
2017-11-17T06:43:02.360Z,88.00
2017-11-17T06:44:55.388Z,108.00
2017-11-17T06:45:55.395Z,120.00
2017-11-17T06:47:48.373Z,152.00
2017-11-17T06:48:48.429Z,164.00
2017-11-17T06:50:41.429Z,192.00
2017-11-17T06:51:41.466Z,212.00
2017-11-17T06:53:34.442Z,244.00
2017-11-17T06:54:34.500Z,264.00
2017-11-17T06:56:27.500Z,304.00
2017-11-17T06:57:27.536Z,328.00
2017-11-17T06:59:20.523Z,368.00
2017-11-17T07:00:20.571Z,392.00
2017-11-17T07:02:13.570Z,440.00
2017-11-17T07:03:13.609Z,464.00
2017-11-17T07:05:06.604Z,516.00
2017-11-17T07:06:06.641Z,540.00
2017-11-17T07:07:59.623Z,596.00
2017-11-17T07:08:59.675Z,624.00
2017-11-17T07:10:52.693Z,680.00
2017-11-17T07:11:52.718Z,716.00
2017-11-17T07:13:45.696Z,772.00
2017-11-17T07:14:45.752Z,804.00
2017-11-17T07:16:38.789Z,864.00
2017-11-17T07:17:38.797Z,896.00
2017-11-17T07:19:31.767Z,952.00
2017-11-17T07:20:31.823Z,984.00
2017-11-17T07:22:24.828Z,1044.00
2017-11-17T07:23:24.864Z,1076.00
2017-11-17T07:25:17.863Z,1136.00
2017-11-17T07:26:17.901Z,1164.00
2017-11-17T07:28:10.883Z,1220.00
2017-11-17T07:29:10.935Z,1248.00
2017-11-17T07:31:03.973Z,1308.00
2017-11-17T07:32:03.972Z,1340.00
2017-11-17T07:33:56.946Z,1396.00
2017-11-17T07:34:57.003Z,1424.00
2017-11-17T07:36:50.008Z,1488.00
2017-11-17T07:37:50.045Z,1520.00
2017-11-17T07:39:43.033Z,1652.00
2017-11-17T07:40:43.089Z,1828.00
2017-11-17T07:42:36.094Z,2328.00
2017-11-17T07:43:36.130Z,2328.00
2017-11-17T07:45:29.129Z,2296.00
2017-11-17T07:46:29.169Z,2384.00
2017-11-17T07:48:22.143Z,2640.00
2017-11-17T07:49:22.211Z,2820.00
2017-11-17T07:51:15.210Z,3128.00
2017-11-17T07:52:15.237Z,3216.00
2017-11-17T07:54:08.211Z,3228.00
2017-11-17T07:55:08.269Z,3200.00
2017-11-17T07:57:01.266Z,3212.00
2017-11-17T07:58:01.301Z,3308.00
2017-11-17T07:59:54.280Z,3400.00
2017-11-17T08:00:54.337Z,3448.00
2017-11-17T08:02:47.339Z,3416.00
2017-11-17T08:03:47.376Z,3448.00
2017-11-17T08:05:40.376Z,3596.00
2017-11-17T08:06:40.410Z,3636.00
2017-11-17T08:08:33.396Z,3588.00
2017-11-17T08:09:33.456Z,3608.00
2017-11-17T08:11:26.455Z,3748.00
2017-11-17T08:12:26.492Z,3784.00
2017-11-17T08:14:19.469Z,3768.00
2017-11-17T08:15:19.529Z,3736.00
2017-11-17T08:17:12.530Z,3704.00
2017-11-17T08:18:12.566Z,3696.00
2017-11-17T08:20:05.550Z,3688.00
2017-11-17T08:21:05.605Z,3696.00
2017-11-17T08:22:58.609Z,3720.00
2017-11-17T08:23:58.643Z,3724.00
2017-11-17T08:25:51.647Z,3732.00
2017-11-17T08:26:51.684Z,3720.00
2017-11-17T08:28:44.670Z,3696.00
2017-11-17T08:29:44.727Z,3660.00
2017-11-17T08:31:37.728Z,3572.00
2017-11-17T08:32:37.763Z,3520.00
2017-11-17T08:34:30.748Z,3424.00
2017-11-17T08:35:30.802Z,3376.00
2017-11-17T08:37:23.808Z,3288.00
2017-11-17T08:38:23.840Z,3240.00
2017-11-17T08:40:16.822Z,3148.00
2017-11-17T08:41:16.881Z,3080.00
2017-11-17T08:43:09.888Z,2788.00
2017-11-17T08:44:09.933Z,2704.00
2017-11-17T08:46:02.927Z,2592.00
2017-11-17T08:47:02.963Z,2572.00
2017-11-17T08:48:55.944Z,2572.00
2017-11-17T08:49:56.001Z,2576.00
2017-11-17T08:51:49.003Z,2580.00
2017-11-17T08:52:49.045Z,2584.00
2017-11-17T08:54:42.025Z,2588.00
2017-11-17T08:55:42.087Z,2592.00
2017-11-17T08:57:35.090Z,2600.00
2017-11-17T08:58:35.128Z,2600.00
2017-11-17T09:00:28.113Z,2612.00
2017-11-17T09:01:28.171Z,2612.00
2017-11-17T09:03:21.175Z,2616.00
2017-11-17T09:04:21.213Z,2616.00
2017-11-17T09:06:14.215Z,2616.00
2017-11-17T09:07:14.253Z,2620.00
2017-11-17T09:09:07.234Z,2616.00
2017-11-17T09:10:07.294Z,2616.00
2017-11-17T09:12:00.294Z,2624.00
2017-11-17T09:13:00.332Z,2624.00
2017-11-17T09:14:53.320Z,2624.00
2017-11-17T09:15:53.374Z,2624.00
2017-11-17T09:17:46.376Z,2624.00
2017-11-17T09:18:46.414Z,2628.00
2017-11-17T09:20:39.398Z,2624.00
2017-11-17T09:21:39.474Z,2620.00
2017-11-17T09:23:32.456Z,2624.00
2017-11-17T09:24:32.495Z,2624.00
2017-11-17T09:26:25.537Z,2628.00
2017-11-17T09:27:25.532Z,2632.00
2017-11-17T09:29:18.519Z,2628.00
2017-11-17T09:30:18.573Z,2636.00
2017-11-17T09:32:11.574Z,2636.00
2017-11-17T09:33:11.614Z,2636.00
2017-11-17T09:35:04.592Z,2640.00
2017-11-17T09:36:04.651Z,2636.00
2017-11-17T09:37:57.655Z,2636.00
2017-11-17T09:38:57.694Z,2636.00
2017-11-17T09:40:50.673Z,2644.00
2017-11-17T09:41:50.733Z,2640.00
2017-11-17T09:43:43.734Z,2648.00
2017-11-17T09:44:43.774Z,2652.00
2017-11-17T09:46:36.757Z,2656.00
2017-11-17T09:47:36.814Z,2660.00
2017-11-17T09:49:29.821Z,2660.00
2017-11-17T09:50:29.855Z,2660.00
2017-11-17T09:52:22.864Z,2664.00
2017-11-17T09:53:22.895Z,2660.00
2017-11-17T09:55:15.896Z,2660.00
2017-11-17T09:56:15.955Z,2656.00
2017-11-17T09:58:08.957Z,2660.00
2017-11-17T09:59:08.994Z,2656.00
2017-11-17T10:01:01.976Z,2656.00
2017-11-17T10:02:02.035Z,2660.00
2017-11-17T10:03:55.036Z,2656.00
2017-11-17T10:04:55.074Z,2664.00
2017-11-17T10:06:48.058Z,2668.00
2017-11-17T10:07:48.114Z,2672.00
2017-11-17T10:09:41.123Z,2668.00
2017-11-17T10:10:41.162Z,2668.00
2017-11-17T10:12:34.165Z,2668.00
2017-11-17T10:13:34.203Z,2668.00
2017-11-17T10:15:27.187Z,2660.00
2017-11-17T10:16:27.244Z,2664.00
2017-11-17T10:18:20.254Z,2652.00
2017-11-17T10:19:20.303Z,2644.00
2017-11-17T10:21:13.277Z,2636.00
2017-11-17T10:22:13.332Z,2632.00
2017-11-17T10:24:06.334Z,2636.00
2017-11-17T10:25:06.371Z,2628.00
2017-11-17T10:26:59.358Z,2636.00
2017-11-17T10:27:59.413Z,2636.00
2017-11-17T10:29:52.419Z,2620.00
2017-11-17T10:30:52.458Z,2620.00
2017-11-17T10:32:45.502Z,2624.00
2017-11-17T10:33:45.498Z,2628.00
2017-11-17T10:35:38.990Z,2636.00
2017-11-17T10:36:39.050Z,2636.00
2017-11-17T10:38:32.054Z,2636.00
2017-11-17T10:39:32.093Z,2636.00
2017-11-17T10:41:25.081Z,2636.00
2017-11-17T10:42:25.135Z,2644.00
2017-11-17T10:44:18.139Z,2664.00
2017-11-17T10:45:18.177Z,2684.00
2017-11-17T10:47:11.162Z,2744.00
2017-11-17T10:48:11.222Z,2776.00
2017-11-17T10:50:04.234Z,2864.00
2017-11-17T10:51:04.271Z,2852.00
2017-11-17T10:52:57.279Z,2864.00
2017-11-17T10:53:57.315Z,2892.00
2017-11-17T10:55:50.300Z,2880.00
2017-11-17T10:56:50.359Z,2904.00
2017-11-17T10:58:43.362Z,2924.00
2017-11-17T10:59:43.407Z,2908.00
2017-11-17T11:01:36.387Z,2896.00
2017-11-17T11:02:36.442Z,2924.00
2017-11-17T11:04:29.446Z,2984.00
2017-11-17T11:05:29.483Z,3048.00
2017-11-17T11:07:22.468Z,3060.00
2017-11-17T11:08:22.529Z,3064.00
2017-11-17T11:10:15.531Z,3048.00
2017-11-17T11:11:15.575Z,3028.00
2017-11-17T11:13:08.576Z,3020.00
2017-11-17T11:14:08.612Z,3000.00
2017-11-17T11:16:01.594Z,2928.00
2017-11-17T11:17:01.657Z,2920.00
2017-11-17T11:18:54.657Z,2888.00
2017-11-17T11:19:54.694Z,2840.00
2017-11-17T11:21:47.678Z,2780.00
2017-11-17T11:22:47.738Z,2760.00
2017-11-17T11:24:40.740Z,2720.00
2017-11-17T11:25:40.786Z,2692.00
2017-11-17T11:27:33.765Z,2656.00
2017-11-17T11:28:33.819Z,2632.00
2017-11-17T11:30:26.824Z,2592.00
2017-11-17T11:31:26.862Z,2584.00
2017-11-17T11:33:19.865Z,2556.00
2017-11-17T11:34:19.906Z,2548.00
2017-11-17T11:36:13.397Z,2540.00
2017-11-17T11:37:13.454Z,2528.00
2017-11-17T11:39:06.460Z,2520.00
2017-11-17T11:40:06.503Z,2516.00
2017-11-17T11:41:59.482Z,2516.00
2017-11-17T11:42:59.538Z,2508.00
2017-11-17T11:44:52.543Z,2472.00
2017-11-17T11:45:52.580Z,2464.00
2017-11-17T11:47:45.566Z,2456.00
2017-11-17T11:48:45.628Z,2452.00
2017-11-17T11:50:38.640Z,2456.00
2017-11-17T11:51:38.672Z,2456.00
2017-11-17T11:53:31.677Z,2460.00
2017-11-17T11:54:31.715Z,2444.00
2017-11-17T11:56:24.699Z,2440.00
2017-11-17T11:57:24.758Z,2436.00
2017-11-17T11:59:17.763Z,2440.00
2017-11-17T12:00:17.815Z,2440.00
2017-11-17T12:02:10.789Z,2448.00
2017-11-17T12:03:10.843Z,2436.00
2017-11-17T12:05:03.844Z,2428.00
2017-11-17T12:06:03.893Z,2436.00
2017-11-17T12:07:56.872Z,2440.00
2017-11-17T12:08:56.933Z,2436.00
2017-11-17T12:10:49.934Z,2436.00
2017-11-17T12:11:49.972Z,2432.00
2017-11-17T12:13:42.977Z,2424.00
2017-11-17T12:14:43.038Z,2432.00
2017-11-17T12:16:35.999Z,2436.00
2017-11-17T12:17:36.055Z,2436.00
2017-11-17T12:19:29.065Z,2436.00
2017-11-17T12:20:29.098Z,2432.00
2017-11-17T12:22:22.095Z,2400.00
2017-11-17T12:23:22.142Z,2388.00
2017-11-17T12:25:15.183Z,2392.00
2017-11-17T12:26:15.183Z,2416.00
2017-11-17T12:28:08.179Z,2496.00
2017-11-17T12:29:08.223Z,2516.00
2017-11-17T12:31:01.230Z,2480.00
2017-11-17T12:32:01.272Z,2468.00
2017-11-17T12:33:54.274Z,2432.00
2017-11-17T12:34:54.308Z,2428.00
2017-11-17T12:36:47.296Z,2412.00
2017-11-17T12:37:47.355Z,2400.00
2017-11-17T12:39:40.370Z,2384.00
2017-11-17T12:40:40.406Z,2372.00
2017-11-17T12:42:33.390Z,2320.00
2017-11-17T12:43:33.450Z,2296.00
2017-11-17T12:45:26.478Z,2284.00
2017-11-17T12:46:26.494Z,2276.00
2017-11-17T12:48:19.482Z,1928.00
2017-11-17T12:49:19.542Z,1940.00
2017-11-17T12:51:12.553Z,2272.00
2017-11-17T12:52:12.590Z,2280.00
2017-11-17T12:54:05.593Z,2300.00
2017-11-17T12:55:05.635Z,2320.00
2017-11-17T12:56:58.616Z,2352.00
2017-11-17T12:57:58.677Z,2360.00
2017-11-17T12:59:51.682Z,2380.00
2017-11-17T13:00:51.715Z,2372.00
2017-11-17T13:02:44.709Z,2352.00
2017-11-17T13:03:44.769Z,2324.00
2017-11-17T13:05:37.779Z,2324.00
2017-11-17T13:06:37.814Z,2348.00
2017-11-17T13:08:30.799Z,2440.00
2017-11-17T13:09:30.859Z,2516.00
2017-11-17T13:11:23.953Z,2688.00
2017-11-17T13:12:23.901Z,2636.00
2017-11-17T13:14:16.903Z,2812.00
2017-11-17T13:15:16.951Z,2716.00
2017-11-17T13:17:09.959Z,2560.00
2017-11-17T13:18:10.017Z,2416.00
2017-11-17T13:20:03.037Z,2376.00
2017-11-17T13:21:03.068Z,2504.00
2017-11-17T13:22:56.107Z,2352.00
2017-11-17T13:23:56.114Z,2664.00
2017-11-17T13:25:49.118Z,2852.00
2017-11-17T13:26:49.155Z,2940.00
2017-11-17T13:28:42.140Z,3328.00
2017-11-17T13:29:42.197Z,3388.00
2017-11-17T13:31:35.203Z,3704.00
2017-11-17T13:32:35.246Z,3920.00
2017-11-17T13:34:28.244Z,3948.00
2017-11-17T13:35:28.282Z,4156.00
2017-11-17T13:37:21.271Z,4140.00
2017-11-17T13:38:21.328Z,4136.00
2017-11-17T13:40:14.332Z,4176.00
2017-11-17T13:41:14.373Z,4192.00
2017-11-17T13:43:07.357Z,4040.00
2017-11-17T13:44:07.421Z,3920.00
2017-11-17T13:46:00.468Z,3636.00
2017-11-17T13:47:00.462Z,3416.00
2017-11-17T13:48:53.443Z,3084.00
2017-11-17T13:49:53.503Z,2932.00
2017-11-17T13:51:46.518Z,2592.00
2017-11-17T13:52:46.551Z,2480.00
2017-11-17T13:54:39.557Z,2316.00
2017-11-17T13:55:39.602Z,2280.00
2017-11-17T13:57:32.582Z,2100.00
2017-11-17T13:58:32.639Z,2004.00
2017-11-17T14:00:25.646Z,1856.00
2017-11-17T14:01:25.684Z,1764.00
2017-11-17T14:03:21.198Z,1636.00
2017-11-17T14:04:21.236Z,1600.00
2017-11-17T14:06:14.263Z,1560.00
2017-11-17T14:07:14.308Z,1536.00
2017-11-17T14:09:07.271Z,1508.00
2017-11-17T14:10:07.331Z,1496.00
2017-11-17T14:12:00.334Z,1480.00
2017-11-17T14:13:00.369Z,1468.00
2017-11-17T14:14:53.383Z,1448.00
2017-11-17T14:15:53.441Z,1448.00
2017-11-17T14:17:46.405Z,1444.00
2017-11-17T14:18:46.465Z,1428.00
2017-11-17T14:20:39.476Z,1404.00
2017-11-17T14:21:39.509Z,1360.00
2017-11-17T14:23:32.496Z,1360.00
2017-11-17T14:24:32.551Z,1348.00
2017-11-17T14:26:25.573Z,1348.00
2017-11-17T14:27:25.611Z,1340.00
2017-11-17T14:29:18.597Z,1324.00
2017-11-17T14:30:18.649Z,1316.00
2017-11-17T14:32:11.654Z,1300.00
2017-11-17T14:33:11.693Z,1284.00
2017-11-17T14:35:04.708Z,1260.00
2017-11-17T14:36:04.739Z,1248.00
2017-11-17T14:37:57.721Z,1224.00
2017-11-17T14:38:57.782Z,1208.00
2017-11-17T14:40:50.785Z,1172.00
2017-11-17T14:41:50.830Z,1172.00
2017-11-17T14:43:43.815Z,1136.00
2017-11-17T14:44:43.875Z,1116.00
2017-11-17T14:46:36.891Z,1088.00
2017-11-17T14:47:36.924Z,1072.00
2017-11-17T14:49:29.910Z,1040.00
2017-11-17T14:50:29.966Z,1028.00
2017-11-17T14:52:22.972Z,1000.00
2017-11-17T14:53:23.019Z,992.00
2017-11-17T14:55:16.045Z,968.00
2017-11-17T14:56:16.066Z,960.00
2017-11-17T14:58:09.051Z,956.00
2017-11-17T14:59:09.109Z,948.00
2017-11-17T15:01:02.116Z,928.00
2017-11-17T15:02:02.154Z,904.00
2017-11-17T15:03:55.645Z,868.00
2017-11-17T15:04:55.702Z,860.00
2017-11-17T15:06:48.710Z,880.00
2017-11-17T15:07:48.749Z,884.00
2017-11-17T15:09:41.734Z,832.00
2017-11-17T15:10:41.792Z,780.00
2017-11-17T15:12:34.792Z,696.00
2017-11-17T15:13:34.831Z,664.00
2017-11-17T15:15:27.846Z,592.00
2017-11-17T15:16:27.878Z,572.00
2017-11-17T15:18:20.860Z,532.00
2017-11-17T15:19:20.922Z,512.00
2017-11-17T15:21:13.929Z,476.00
2017-11-17T15:22:13.966Z,452.00
2017-11-17T15:24:06.968Z,408.00
2017-11-17T15:25:07.025Z,384.00
2017-11-17T15:27:00.031Z,340.00
2017-11-17T15:28:00.075Z,320.00
2017-11-17T15:29:53.059Z,280.00
2017-11-17T15:30:53.118Z,264.00
2017-11-17T15:32:46.151Z,228.00
2017-11-17T15:33:46.178Z,216.00
2017-11-17T15:35:39.176Z,188.00
2017-11-17T15:36:39.212Z,172.00
2017-11-17T15:38:32.193Z,148.00
2017-11-17T15:39:32.260Z,132.00
2017-11-17T15:41:25.259Z,108.00
2017-11-17T15:42:25.298Z,100.00
2017-11-17T15:44:18.287Z,76.00
2017-11-17T15:45:18.402Z,72.00
2017-11-17T15:47:11.365Z,56.00
2017-11-17T15:48:11.510Z,48.00
2017-11-17T15:50:04.411Z,36.00
2017-11-17T15:51:04.481Z,36.00
2017-11-17T15:52:57.486Z,24.00
2017-11-17T15:53:57.517Z,20.00
2017-11-17T15:55:50.564Z,16.00
2017-11-17T15:56:50.576Z,16.00
2017-11-17T15:58:43.549Z,12.00
2017-11-17T15:59:43.611Z,8.00
2017-11-17T16:01:36.695Z,4.00
2017-11-17T16:02:36.654Z,8.00
2017-11-17T16:04:42.956Z,4.00
2017-11-17T16:05:43.004Z,4.00
2017-11-17T16:07:36.038Z,4.00
2017-11-17T16:08:36.087Z,4.00
2017-11-17T16:10:29.047Z,0.00
2017-11-17T16:11:29.100Z,0.00
2017-11-17T16:13:22.102Z,0.00
2017-11-17T16:14:22.139Z,0.00
2017-11-17T16:16:15.141Z,0.00
2017-11-17T16:17:15.178Z,0.00
2017-11-17T16:19:08.163Z,0.00
2017-11-17T16:20:08.217Z,0.00
2017-11-17T16:22:01.225Z,0.00
2017-11-17T16:23:01.256Z,0.00
2017-11-17T16:24:54.233Z,0.00
2017-11-17T16:25:54.293Z,0.00
2017-11-17T16:27:47.293Z,0.00
2017-11-17T16:28:47.329Z,0.00
2017-11-17T16:30:40.308Z,0.00
2017-11-17T16:31:40.370Z,0.00
2017-11-17T16:33:33.373Z,0.00
2017-11-17T16:34:33.408Z,0.00
2017-11-17T16:36:26.410Z,0.00
2017-11-17T16:37:26.447Z,0.00
2017-11-17T16:39:19.449Z,0.00
2017-11-17T16:40:19.496Z,0.00
2017-11-17T16:42:12.506Z,0.00
2017-11-17T16:43:12.531Z,0.00
2017-11-17T16:45:05.514Z,0.00
2017-11-17T16:46:05.570Z,0.00
2017-11-17T16:47:58.569Z,0.00
2017-11-17T16:48:58.607Z,0.00
2017-11-17T16:50:51.593Z,0.00
2017-11-17T16:51:51.649Z,0.00
2017-11-17T16:53:44.649Z,0.00
2017-11-17T16:54:44.686Z,0.00
2017-11-17T16:56:37.688Z,0.00
2017-11-17T16:57:37.732Z,0.00
2017-11-17T16:59:30.709Z,0.00
2017-11-17T17:00:30.763Z,0.00
2017-11-17T17:02:23.767Z,0.00
2017-11-17T17:03:23.800Z,0.00
2017-11-17T17:05:17.308Z,0.00
2017-11-17T17:06:17.354Z,0.00
2017-11-17T17:08:10.440Z,0.00
2017-11-17T17:09:10.419Z,0.00
2017-11-17T17:11:03.394Z,0.00
2017-11-17T17:12:03.446Z,0.00
2017-11-17T17:13:56.520Z,0.00
2017-11-17T17:14:56.523Z,0.00
2017-11-17T17:16:49.531Z,0.00
2017-11-17T17:17:49.552Z,0.00
2017-11-17T17:19:42.559Z,0.00
2017-11-17T17:20:42.725Z,0.00
2017-11-17T17:22:35.613Z,0.00
2017-11-17T17:23:35.643Z,0.00
2017-11-17T17:25:28.649Z,0.00
2017-11-17T17:26:28.693Z,0.00
2017-11-17T17:28:21.696Z,0.00
2017-11-17T17:29:21.730Z,0.00
2017-11-17T17:31:14.711Z,0.00
2017-11-17T17:32:14.773Z,0.00
2017-11-17T17:34:07.783Z,0.00
2017-11-17T17:35:07.808Z,0.00
2017-11-17T17:37:00.864Z,0.00
2017-11-17T17:38:00.852Z,0.00
2017-11-17T17:39:53.832Z,0.00
2017-11-17T17:40:53.885Z,0.00
2017-11-17T17:42:46.888Z,0.00
2017-11-17T17:43:46.925Z,0.00
2017-11-17T17:45:39.910Z,0.00
2017-11-17T17:46:39.961Z,0.00
2017-11-17T17:48:33.041Z,0.00
2017-11-17T17:49:33.050Z,0.00
2017-11-17T17:51:26.027Z,0.00
2017-11-17T17:52:26.045Z,0.00
2017-11-17T17:54:19.098Z,0.00
2017-11-17T17:55:19.088Z,0.00
2017-11-17T17:57:12.195Z,0.00
2017-11-17T17:58:12.156Z,0.00
2017-11-17T18:00:05.147Z,0.00
2017-11-17T18:01:05.197Z,0.00
2017-11-17T18:02:58.234Z,0.00
2017-11-17T18:03:58.250Z,0.00
2017-11-17T18:05:51.221Z,0.00
2017-11-17T18:06:51.267Z,0.00
2017-11-17T18:08:44.272Z,0.00
2017-11-17T18:09:44.311Z,0.00
2017-11-17T18:11:37.297Z,0.00
2017-11-17T18:12:37.349Z,0.00
2017-11-17T18:14:30.401Z,0.00
2017-11-17T18:15:30.396Z,0.00
2017-11-17T18:17:23.404Z,0.00
2017-11-17T18:18:23.528Z,0.00
2017-11-17T18:20:16.426Z,0.00